XAR weather

Aribinda Airport
Aribinda, Soum, Burkina Faso

Public forecast

Using degrees Celsius for public forecast. Weather courtesy of forecast.io.

METAR (pilot weather report)

Report is more than 6 hours old.

Closest report is Dori Airport, 50.7 nm (93.9 km) ESE. Retrieved 2009/09/21 17:00 UTC (9 years ago):

DFEE 211700Z 14002KT 9/9 FEW020 BKN260 34/21

TAF (pilot weather forecast)

Closest forecast is Ouagadougou Airport, 117.8 nm (218.2 km) SSW. Retrieved 2019/03/18 12:21 UTC (5 hours ago):

TAF DFFD 181100Z 1812/1918 VRB07KT 8000 NSC PROB30 TEMPO 1816/1904 4000 TSRA SCT026 FEW040CB PROB30 TEMPO 1906/1910 4000 DU